createdAt,value
2022-11-19T00:02:09.726Z,6.80
2022-11-19T00:04:37.833Z,6.80
2022-11-19T00:07:05.979Z,6.80
2022-11-19T00:09:34.028Z,6.70
2022-11-19T00:12:21.138Z,6.70
2022-11-19T00:14:49.191Z,6.70
2022-11-19T00:17:17.175Z,6.60
2022-11-19T00:19:45.313Z,6.70
2022-11-19T00:22:13.605Z,6.70
2022-11-19T00:24:41.688Z,6.60
2022-11-19T00:27:11.063Z,6.60
2022-11-19T00:29:39.398Z,6.60
2022-11-19T00:32:07.421Z,6.60
2022-11-19T00:34:35.547Z,6.60
2022-11-19T00:37:03.559Z,6.60
2022-11-19T00:39:31.616Z,6.60
2022-11-19T00:41:59.703Z,6.50
2022-11-19T00:44:33.963Z,6.60
2022-11-19T00:47:05.033Z,6.60
2022-11-19T00:49:33.026Z,6.60
2022-11-19T00:52:01.356Z,6.50
2022-11-19T00:54:29.368Z,6.60
2022-11-19T00:56:57.357Z,6.50
2022-11-19T00:59:25.498Z,6.60
2022-11-19T01:01:54.882Z,6.60
2022-11-19T01:04:23.054Z,6.60
2022-11-19T01:06:51.033Z,6.60
2022-11-19T01:09:19.808Z,6.60
2022-11-19T01:11:48.114Z,6.60
2022-11-19T01:14:16.147Z,6.60
2022-11-19T01:16:44.213Z,6.60
2022-11-19T01:19:16.508Z,6.60
2022-11-19T01:21:45.087Z,6.60
2022-11-19T01:24:13.121Z,6.60
2022-11-19T01:26:45.569Z,6.70
2022-11-19T01:29:17.397Z,6.60
2022-11-19T01:31:45.666Z,6.70
2022-11-19T01:34:15.019Z,6.70
2022-11-19T01:36:43.076Z,6.70
2022-11-19T01:39:11.443Z,6.70
2022-11-19T01:41:39.680Z,6.70
2022-11-19T01:44:08.860Z,6.70
2022-11-19T01:46:38.628Z,6.70
2022-11-19T01:49:11.068Z,6.80
2022-11-19T01:51:45.013Z,6.70
2022-11-19T01:54:19.707Z,6.70
2022-11-19T01:56:48.243Z,6.80
2022-11-19T01:59:19.372Z,6.80
2022-11-19T02:01:47.771Z,6.80
2022-11-19T02:04:18.809Z,6.80
2022-11-19T02:06:49.161Z,6.80
2022-11-19T02:09:17.399Z,6.80
2022-11-19T02:12:21.223Z,6.80
2022-11-19T02:15:04.174Z,6.80
2022-11-19T02:17:46.024Z,6.80
2022-11-19T02:20:48.327Z,6.80
2022-11-19T02:23:46.543Z,6.80
2022-11-19T02:26:36.781Z,6.80
2022-11-19T02:29:15.144Z,6.70
2022-11-19T02:31:51.970Z,6.70
2022-11-19T02:34:26.759Z,6.70
2022-11-19T02:37:01.835Z,6.60
2022-11-19T02:39:37.336Z,6.70
2022-11-19T02:42:11.659Z,6.60
2022-11-19T02:45:02.585Z,6.60
2022-11-19T02:47:36.777Z,6.70
2022-11-19T02:50:10.013Z,6.60
2022-11-19T02:52:38.713Z,6.60
2022-11-19T02:55:07.686Z,6.60
2022-11-19T02:57:37.370Z,6.60
2022-11-19T03:00:28.210Z,6.60
2022-11-19T03:03:20.137Z,6.60
2022-11-19T03:05:52.674Z,6.60
2022-11-19T03:08:21.083Z,6.60
2022-11-19T03:11:07.031Z,6.50
2022-11-19T03:14:05.150Z,6.50
2022-11-19T03:16:43.005Z,6.50
2022-11-19T03:19:31.950Z,6.50
2022-11-19T03:22:04.849Z,6.50
2022-11-19T03:24:37.449Z,6.50
2022-11-19T03:27:10.578Z,6.40
2022-11-19T03:29:44.006Z,6.50
2022-11-19T03:32:17.477Z,6.40
2022-11-19T03:34:49.871Z,6.30
2022-11-19T03:37:20.716Z,6.30
2022-11-19T03:39:50.455Z,6.20
2022-11-19T03:42:21.303Z,6.30
2022-11-19T03:44:51.836Z,6.20
2022-11-19T03:47:26.041Z,6.20
2022-11-19T03:50:03.076Z,6.20
2022-11-19T03:52:31.210Z,6.20
2022-11-19T03:54:59.460Z,6.10
2022-11-19T03:57:28.936Z,6.10
2022-11-19T03:59:57.008Z,6.00
2022-11-19T04:02:28.032Z,6.00
2022-11-19T04:04:57.388Z,5.90
2022-11-19T04:07:25.645Z,6.00
2022-11-19T04:09:53.726Z,6.00
2022-11-19T04:12:23.458Z,5.90
2022-11-19T04:14:52.160Z,5.80
2022-11-19T04:17:21.519Z,5.80
2022-11-19T04:19:49.569Z,5.70
2022-11-19T04:22:18.978Z,5.70
2022-11-19T04:24:47.785Z,5.70
2022-11-19T04:27:15.776Z,5.70
2022-11-19T04:29:43.804Z,5.60
2022-11-19T04:32:11.891Z,5.60
2022-11-19T04:34:40.124Z,5.70
2022-11-19T04:37:08.843Z,5.70
2022-11-19T04:39:38.204Z,5.60
2022-11-19T04:42:06.586Z,5.60
2022-11-19T04:44:34.601Z,5.60
2022-11-19T04:47:02.741Z,5.50
2022-11-19T04:49:30.860Z,5.30
2022-11-19T04:51:58.923Z,5.30
2022-11-19T04:54:26.929Z,5.20
2022-11-19T04:56:56.521Z,5.30
2022-11-19T04:59:24.555Z,5.20
2022-11-19T05:01:52.741Z,5.10
2022-11-19T05:04:21.318Z,5.10
2022-11-19T05:06:49.353Z,5.00
2022-11-19T05:09:17.800Z,5.00
2022-11-19T05:11:46.097Z,5.00
2022-11-19T05:14:16.067Z,5.00
2022-11-19T05:16:44.059Z,4.80
2022-11-19T05:19:12.097Z,4.80
2022-11-19T05:21:40.185Z,4.80
2022-11-19T05:24:08.928Z,4.90
2022-11-19T05:26:37.020Z,4.90
2022-11-19T05:29:05.063Z,4.90
2022-11-19T05:31:34.377Z,4.90
2022-11-19T05:34:02.489Z,4.90
2022-11-19T05:36:30.532Z,4.90
2022-11-19T05:38:58.877Z,4.90
2022-11-19T05:41:27.564Z,4.90
2022-11-19T05:43:55.704Z,4.90
2022-11-19T05:46:23.922Z,4.90
2022-11-19T05:48:53.306Z,4.90
2022-11-19T05:51:21.480Z,4.80
2022-11-19T05:53:49.569Z,4.80
2022-11-19T05:56:17.687Z,4.80
2022-11-19T05:58:45.747Z,4.60
2022-11-19T06:01:16.772Z,4.50
2022-11-19T06:03:44.794Z,4.40
2022-11-19T06:06:15.015Z,4.50
2022-11-19T06:08:43.091Z,4.30
2022-11-19T06:11:31.905Z,4.40
2022-11-19T06:14:00.228Z,4.40
2022-11-19T06:16:28.852Z,4.40
2022-11-19T06:18:56.960Z,4.50
2022-11-19T06:21:26.416Z,4.50
2022-11-19T06:23:54.705Z,4.50
2022-11-19T06:26:24.385Z,4.60
2022-11-19T06:28:52.500Z,4.50
2022-11-19T06:31:20.976Z,4.50
2022-11-19T06:33:49.417Z,4.60
2022-11-19T06:36:17.924Z,4.50
2022-11-19T06:38:47.452Z,4.40
2022-11-19T06:41:15.812Z,4.40
2022-11-19T06:43:44.262Z,4.40
2022-11-19T06:46:15.620Z,4.40
2022-11-19T06:48:43.944Z,4.40
2022-11-19T06:51:12.565Z,4.50
2022-11-19T06:53:40.659Z,4.60
2022-11-19T06:56:13.416Z,4.50
2022-11-19T06:58:41.577Z,4.40
2022-11-19T07:01:09.618Z,4.50
2022-11-19T07:03:37.671Z,4.50
2022-11-19T07:06:07.142Z,4.40
2022-11-19T07:08:36.308Z,4.50
2022-11-19T07:11:25.658Z,4.50
2022-11-19T07:13:59.518Z,4.50
2022-11-19T07:16:29.690Z,4.60
2022-11-19T07:18:59.603Z,4.50
2022-11-19T07:21:28.360Z,4.60
2022-11-19T07:23:56.822Z,4.50
2022-11-19T07:26:25.160Z,4.50
2022-11-19T07:28:55.100Z,4.60
2022-11-19T07:31:25.013Z,4.50
2022-11-19T07:33:53.099Z,4.50
2022-11-19T07:36:22.094Z,4.60
2022-11-19T07:38:50.871Z,4.60
2022-11-19T07:41:32.976Z,4.60
2022-11-19T07:44:02.453Z,4.60
2022-11-19T07:46:30.492Z,4.60
2022-11-19T07:48:59.732Z,4.60
2022-11-19T07:51:28.920Z,4.70
2022-11-19T07:53:57.747Z,4.60
2022-11-19T07:56:26.156Z,4.60
2022-11-19T07:58:54.159Z,4.70
2022-11-19T08:01:25.555Z,4.60
2022-11-19T08:03:58.078Z,4.70
2022-11-19T08:06:28.546Z,4.60
2022-11-19T08:08:57.082Z,4.70
2022-11-19T08:11:26.047Z,4.80
2022-11-19T08:13:54.440Z,4.70
2022-11-19T08:16:41.514Z,4.80
2022-11-19T08:19:11.346Z,4.80
2022-11-19T08:21:42.214Z,4.90
2022-11-19T08:24:11.380Z,4.90
2022-11-19T08:26:40.778Z,5.00
2022-11-19T08:29:15.709Z,4.90
2022-11-19T08:31:47.929Z,5.00
2022-11-19T08:34:16.716Z,5.00
2022-11-19T08:36:45.153Z,5.00
2022-11-19T08:39:13.293Z,5.00
2022-11-19T08:41:59.732Z,5.00
2022-11-19T08:44:27.974Z,5.00
2022-11-19T08:47:04.951Z,5.00
2022-11-19T08:49:33.065Z,5.00
2022-11-19T08:52:01.127Z,5.10
2022-11-19T08:54:29.166Z,5.00
2022-11-19T08:56:57.311Z,5.00
2022-11-19T08:59:25.586Z,5.00
2022-11-19T09:01:53.757Z,5.10
2022-11-19T09:04:23.227Z,5.10
2022-11-19T09:06:52.071Z,5.00
2022-11-19T09:09:20.306Z,5.00
2022-11-19T09:11:48.331Z,5.00
2022-11-19T09:14:19.222Z,5.00
2022-11-19T09:16:47.507Z,5.00
2022-11-19T09:19:16.103Z,5.10
2022-11-19T09:21:45.524Z,5.10
2022-11-19T09:24:13.629Z,5.10
2022-11-19T09:26:41.701Z,5.20
2022-11-19T09:29:10.360Z,5.20
2022-11-19T09:31:38.412Z,5.20
2022-11-19T09:34:06.480Z,5.20
2022-11-19T09:36:34.585Z,5.20
2022-11-19T09:39:04.351Z,5.20
2022-11-19T09:41:46.685Z,5.30
2022-11-19T09:44:29.869Z,5.20
2022-11-19T09:47:08.658Z,5.20
2022-11-19T09:49:43.614Z,5.20
2022-11-19T09:52:15.806Z,5.30
2022-11-19T09:54:49.335Z,5.30
2022-11-19T09:57:25.441Z,5.30
2022-11-19T09:59:57.897Z,5.20
2022-11-19T10:02:26.012Z,5.20
2022-11-19T10:04:54.566Z,5.30
2022-11-19T10:07:33.227Z,5.40
2022-11-19T10:10:16.836Z,5.30
2022-11-19T10:13:12.182Z,5.30
2022-11-19T10:15:55.940Z,5.30
2022-11-19T10:18:31.510Z,5.20
2022-11-19T10:21:06.972Z,5.20
2022-11-19T10:23:48.033Z,5.20
2022-11-19T10:26:26.495Z,5.20
2022-11-19T10:28:57.327Z,5.30
2022-11-19T10:31:37.461Z,5.30
2022-11-19T10:34:14.171Z,5.20
2022-11-19T10:36:45.656Z,5.20
2022-11-19T10:39:23.425Z,5.10
2022-11-19T10:41:56.307Z,5.10
2022-11-19T10:44:40.094Z,5.20
2022-11-19T10:47:14.940Z,5.20
2022-11-19T10:49:44.135Z,5.20
2022-11-19T10:52:23.515Z,5.30
2022-11-19T10:54:53.701Z,5.40
2022-11-19T10:57:24.270Z,5.40
2022-11-19T10:59:54.408Z,5.40
2022-11-19T11:02:28.355Z,5.40
2022-11-19T11:05:05.092Z,5.40
2022-11-19T11:07:52.022Z,5.40
2022-11-19T11:10:37.140Z,5.40
2022-11-19T11:13:42.718Z,5.40
2022-11-19T11:16:13.525Z,5.30
2022-11-19T11:18:41.885Z,5.30
2022-11-19T11:21:14.542Z,5.40
2022-11-19T11:23:52.582Z,5.30
2022-11-19T11:26:23.784Z,5.40
2022-11-19T11:28:58.702Z,5.40
2022-11-19T11:31:35.769Z,5.40
2022-11-19T11:34:05.431Z,5.40
2022-11-19T11:36:36.392Z,5.40
2022-11-19T11:39:06.927Z,5.40
2022-11-19T11:42:05.466Z,5.40
2022-11-19T11:44:30.676Z,5.30
2022-11-19T11:47:01.661Z,5.50
2022-11-19T11:49:33.087Z,5.40
2022-11-19T11:52:17.818Z,5.30
2022-11-19T11:54:57.718Z,5.40
2022-11-19T11:57:27.510Z,5.40
2022-11-19T11:59:57.391Z,5.40
2022-11-19T12:02:30.409Z,5.40
2022-11-19T12:05:02.088Z,5.30
2022-11-19T12:07:55.183Z,5.30
2022-11-19T12:10:31.365Z,5.30
2022-11-19T12:13:37.527Z,5.30
2022-11-19T12:16:13.163Z,5.20
2022-11-19T12:18:52.491Z,5.30
2022-11-19T12:21:33.261Z,5.20
2022-11-19T12:24:14.529Z,5.20
2022-11-19T12:27:01.000Z,5.20
2022-11-19T12:29:37.519Z,5.20
2022-11-19T12:32:20.900Z,5.10
2022-11-19T12:35:16.824Z,5.10
2022-11-19T12:38:03.030Z,5.00
2022-11-19T12:40:41.414Z,5.00
2022-11-19T12:43:22.215Z,5.00
2022-11-19T12:46:00.392Z,5.10
2022-11-19T12:48:49.662Z,5.00
2022-11-19T12:51:30.844Z,4.90
2022-11-19T12:54:15.202Z,5.00
2022-11-19T12:56:57.720Z,5.00
2022-11-19T12:59:41.427Z,5.00
2022-11-19T13:02:23.966Z,5.00
2022-11-19T13:04:59.470Z,5.10
2022-11-19T13:07:34.514Z,5.00
2022-11-19T13:10:07.201Z,5.00
2022-11-19T13:12:40.692Z,5.10
2022-11-19T13:15:16.294Z,5.20
2022-11-19T13:17:47.875Z,5.10
2022-11-19T13:20:25.295Z,5.10
2022-11-19T13:22:55.976Z,4.90
2022-11-19T13:25:27.497Z,5.00
2022-11-19T13:27:58.988Z,4.70
2022-11-19T13:30:28.108Z,4.80
2022-11-19T13:33:06.482Z,4.90
2022-11-19T13:35:44.175Z,4.90
2022-11-19T13:38:19.430Z,4.90
2022-11-19T13:40:52.350Z,4.90
2022-11-19T13:43:40.309Z,4.90
2022-11-19T13:46:21.418Z,4.90
2022-11-19T13:48:56.805Z,4.90
2022-11-19T13:51:31.017Z,4.90
2022-11-19T13:54:03.433Z,5.00
2022-11-19T13:56:46.348Z,5.00
2022-11-19T13:59:46.245Z,5.00
2022-11-19T14:03:11.381Z,5.00
2022-11-19T14:05:57.293Z,4.90
2022-11-19T14:08:48.423Z,5.00
2022-11-19T14:11:32.470Z,4.90
2022-11-19T14:14:34.903Z,4.90
2022-11-19T14:17:32.004Z,4.80
2022-11-19T14:20:17.468Z,4.80
2022-11-19T14:23:13.310Z,4.90
2022-11-19T14:26:00.380Z,4.80
2022-11-19T14:28:46.017Z,4.80
2022-11-19T14:31:15.145Z,4.80
2022-11-19T14:33:59.947Z,4.70
2022-11-19T14:36:44.009Z,4.70
2022-11-19T14:39:19.122Z,4.70
2022-11-19T14:42:08.813Z,4.70
2022-11-19T14:44:37.310Z,4.70
2022-11-19T14:47:33.880Z,4.80
2022-11-19T14:50:05.382Z,4.60
2022-11-19T14:52:36.233Z,4.60
2022-11-19T14:55:07.933Z,4.60
2022-11-19T14:57:40.474Z,4.60
2022-11-19T15:00:28.913Z,4.60
2022-11-19T15:02:58.081Z,4.70
2022-11-19T15:05:33.441Z,4.70
2022-11-19T15:08:29.520Z,4.70
2022-11-19T15:11:09.676Z,4.50
2022-11-19T15:13:41.241Z,4.60
2022-11-19T15:16:16.328Z,4.60
2022-11-19T15:19:23.075Z,4.70
2022-11-19T15:22:30.541Z,4.70
2022-11-19T15:25:15.260Z,4.70
2022-11-19T15:27:55.448Z,4.70
2022-11-19T15:30:30.040Z,4.60
2022-11-19T15:33:46.363Z,4.70
2022-11-19T15:36:32.038Z,4.60
2022-11-19T15:39:07.169Z,4.60
2022-11-19T15:41:41.691Z,4.60
2022-11-19T15:44:16.840Z,4.60
2022-11-19T15:46:49.317Z,4.60
2022-11-19T15:49:22.048Z,4.60
2022-11-19T15:52:07.394Z,4.50
2022-11-19T15:54:37.431Z,4.60
2022-11-19T15:57:15.533Z,4.60
2022-11-19T15:59:47.515Z,4.50
2022-11-19T16:02:20.360Z,4.40
2022-11-19T16:04:51.096Z,4.40
2022-11-19T16:07:25.801Z,4.50
2022-11-19T16:09:54.366Z,4.60
2022-11-19T16:12:41.691Z,4.60
2022-11-19T16:15:36.797Z,4.60
2022-11-19T16:18:14.489Z,4.60
2022-11-19T16:20:46.529Z,4.60
2022-11-19T16:23:19.201Z,4.60
2022-11-19T16:25:48.397Z,4.60
2022-11-19T16:28:18.860Z,4.60
2022-11-19T16:30:50.907Z,4.60
2022-11-19T16:33:22.517Z,4.50
2022-11-19T16:35:53.235Z,4.60
2022-11-19T16:38:28.501Z,4.60
2022-11-19T16:41:17.634Z,4.60
2022-11-19T16:43:48.688Z,4.60
2022-11-19T16:46:21.505Z,4.60
2022-11-19T16:49:00.246Z,4.60
2022-11-19T16:51:41.921Z,4.60
2022-11-19T16:54:11.900Z,4.70
2022-11-19T16:56:45.361Z,4.60
2022-11-19T16:59:23.990Z,4.70
2022-11-19T17:01:58.453Z,4.70
2022-11-19T17:04:30.757Z,4.70
2022-11-19T17:06:59.718Z,4.70
2022-11-19T17:09:41.842Z,4.70
2022-11-19T17:12:25.093Z,4.80
2022-11-19T17:14:56.191Z,4.70
2022-11-19T17:17:40.253Z,4.70
2022-11-19T17:20:52.738Z,4.70
2022-11-19T17:23:22.115Z,4.70
2022-11-19T17:25:52.089Z,4.80
2022-11-19T17:28:22.501Z,4.80
2022-11-19T17:30:51.207Z,4.80
2022-11-19T17:33:22.844Z,4.80
2022-11-19T17:35:52.546Z,4.70
2022-11-19T17:38:23.861Z,4.70
2022-11-19T17:40:54.437Z,4.80
2022-11-19T17:43:43.176Z,4.80
2022-11-19T17:46:11.475Z,4.80
2022-11-19T17:48:43.942Z,4.80
2022-11-19T17:51:14.914Z,4.70
2022-11-19T17:53:43.053Z,4.80
2022-11-19T17:56:19.333Z,4.70
2022-11-19T17:58:47.965Z,4.80
2022-11-19T18:01:16.596Z,4.90
2022-11-19T18:03:45.436Z,4.80
2022-11-19T18:06:16.873Z,4.70
2022-11-19T18:08:46.504Z,4.70
2022-11-19T18:11:16.917Z,4.70
2022-11-19T18:13:46.547Z,4.70
2022-11-19T18:16:16.435Z,4.80
2022-11-19T18:18:45.103Z,4.80
2022-11-19T18:21:16.396Z,4.80
2022-11-19T18:23:46.193Z,4.70
2022-11-19T18:26:16.039Z,4.70
2022-11-19T18:28:47.769Z,4.70
2022-11-19T18:31:20.059Z,4.70
2022-11-19T18:33:49.285Z,4.60
2022-11-19T18:36:19.444Z,4.70
2022-11-19T18:38:48.295Z,4.70
2022-11-19T18:41:19.363Z,4.70
2022-11-19T18:44:05.560Z,4.60
2022-11-19T18:46:33.659Z,4.60
2022-11-19T18:49:02.076Z,4.60
2022-11-19T18:51:32.340Z,4.60
2022-11-19T18:54:00.863Z,4.70
2022-11-19T18:56:28.966Z,4.70
2022-11-19T18:59:00.424Z,4.70
2022-11-19T19:01:32.896Z,4.70
2022-11-19T19:04:00.978Z,4.70
2022-11-19T19:06:31.944Z,4.60
2022-11-19T19:08:59.968Z,4.70
2022-11-19T19:11:45.592Z,4.70
2022-11-19T19:14:13.612Z,4.70
2022-11-19T19:16:41.745Z,4.60
2022-11-19T19:19:11.000Z,4.60
2022-11-19T19:21:40.744Z,4.70
2022-11-19T19:24:09.395Z,4.70
2022-11-19T19:26:37.399Z,4.70
2022-11-19T19:29:06.375Z,4.70
2022-11-19T19:31:34.861Z,4.60
2022-11-19T19:34:02.975Z,4.70
2022-11-19T19:36:31.602Z,4.70
2022-11-19T19:39:05.467Z,4.70
2022-11-19T19:41:33.535Z,4.60
2022-11-19T19:44:03.641Z,4.60
2022-11-19T19:46:36.434Z,4.70
2022-11-19T19:49:04.683Z,4.70
2022-11-19T19:51:32.975Z,4.70
2022-11-19T19:54:02.075Z,4.70
2022-11-19T19:56:33.668Z,4.70
2022-11-19T19:59:04.224Z,4.70
2022-11-19T20:01:34.156Z,4.70
2022-11-19T20:04:04.321Z,4.80
2022-11-19T20:06:32.909Z,4.70
2022-11-19T20:09:05.532Z,4.70
2022-11-19T20:11:38.076Z,4.70
2022-11-19T20:14:06.719Z,4.70
2022-11-19T20:16:35.855Z,4.80
2022-11-19T20:19:04.134Z,4.70
2022-11-19T20:21:36.302Z,4.70
2022-11-19T20:24:10.341Z,4.70
2022-11-19T20:26:42.072Z,4.70
2022-11-19T20:29:13.136Z,4.80
2022-11-19T20:31:42.349Z,4.80
2022-11-19T20:34:12.886Z,4.70
2022-11-19T20:36:41.365Z,4.80
2022-11-19T20:39:09.986Z,4.80
2022-11-19T20:41:59.437Z,4.80
2022-11-19T20:44:27.480Z,4.80
2022-11-19T20:46:57.184Z,4.80
2022-11-19T20:49:27.819Z,4.80
2022-11-19T20:51:57.069Z,4.80
2022-11-19T20:54:27.312Z,4.80
2022-11-19T20:56:57.944Z,4.80
2022-11-19T20:59:28.653Z,4.80
2022-11-19T21:01:57.884Z,4.80
2022-11-19T21:04:28.507Z,4.80
2022-11-19T21:06:56.900Z,4.80
2022-11-19T21:09:26.403Z,4.80
2022-11-19T21:11:57.218Z,4.80
2022-11-19T21:14:25.397Z,4.70
2022-11-19T21:16:53.995Z,4.70
2022-11-19T21:19:23.069Z,4.80
2022-11-19T21:21:51.595Z,4.80
2022-11-19T21:24:19.803Z,4.80
2022-11-19T21:26:47.873Z,4.80
2022-11-19T21:29:17.453Z,4.80
2022-11-19T21:31:45.665Z,4.70
2022-11-19T21:34:17.567Z,4.70
2022-11-19T21:36:47.369Z,4.70
2022-11-19T21:39:16.587Z,4.60
2022-11-19T21:41:45.817Z,4.70
2022-11-19T21:44:19.606Z,4.70
2022-11-19T21:46:50.514Z,4.70
2022-11-19T21:49:19.488Z,4.70
2022-11-19T21:51:47.807Z,4.70
2022-11-19T21:54:15.903Z,4.70
2022-11-19T21:56:44.027Z,4.60
2022-11-19T21:59:12.770Z,4.60
2022-11-19T22:01:40.962Z,4.60
2022-11-19T22:04:15.437Z,4.60
2022-11-19T22:06:47.013Z,4.60
2022-11-19T22:09:15.646Z,4.70
2022-11-19T22:11:44.127Z,4.70
2022-11-19T22:14:12.135Z,4.70
2022-11-19T22:16:41.222Z,4.70
2022-11-19T22:19:09.375Z,4.60
2022-11-19T22:21:38.798Z,4.60
2022-11-19T22:24:07.637Z,4.60
2022-11-19T22:26:35.757Z,4.60
2022-11-19T22:29:04.168Z,4.60
2022-11-19T22:31:32.193Z,4.50
2022-11-19T22:34:00.230Z,4.50
2022-11-19T22:36:31.558Z,4.50
2022-11-19T22:39:01.077Z,4.60
2022-11-19T22:41:29.139Z,4.60
2022-11-19T22:43:57.525Z,4.60
2022-11-19T22:46:25.859Z,4.70
2022-11-19T22:48:54.223Z,4.60
2022-11-19T22:51:23.893Z,4.60
2022-11-19T22:53:53.849Z,4.60
2022-11-19T22:56:25.136Z,4.60
2022-11-19T22:58:53.869Z,4.70
2022-11-19T23:01:24.689Z,4.60
2022-11-19T23:03:53.689Z,4.60
2022-11-19T23:06:23.189Z,4.60
2022-11-19T23:08:51.738Z,4.60
2022-11-19T23:11:42.216Z,4.60
2022-11-19T23:14:13.139Z,4.60
2022-11-19T23:16:41.743Z,4.60
2022-11-19T23:19:10.837Z,4.60
2022-11-19T23:21:40.085Z,4.60
2022-11-19T23:24:09.587Z,4.60
2022-11-19T23:26:38.020Z,4.60
2022-11-19T23:29:06.562Z,4.60
2022-11-19T23:31:37.915Z,4.70
2022-11-19T23:34:05.990Z,4.60
2022-11-19T23:36:35.819Z,4.70
2022-11-19T23:39:05.148Z,4.70
2022-11-19T23:41:34.716Z,4.70
2022-11-19T23:44:03.354Z,4.70
2022-11-19T23:46:33.444Z,4.60
2022-11-19T23:49:04.132Z,4.70
2022-11-19T23:51:33.632Z,4.70
2022-11-19T23:54:03.681Z,4.70
2022-11-19T23:56:33.222Z,4.70
2022-11-19T23:59:03.224Z,4.80
